createdAt,value
2022-10-30T00:01:05.130Z,101275.63
2022-10-30T00:03:31.521Z,101282.16
2022-10-30T00:05:58.353Z,101275.22
2022-10-30T00:08:27.892Z,101278.28
2022-10-30T00:10:54.473Z,101277.63
2022-10-30T00:13:21.921Z,101280.31
2022-10-30T00:15:53.156Z,101280.34
2022-10-30T00:18:20.632Z,101281.56
2022-10-30T00:20:47.600Z,101280.13
2022-10-30T00:23:14.970Z,101286.06
2022-10-30T00:25:41.566Z,101284.84
2022-10-30T00:28:08.385Z,101285.28
2022-10-30T00:30:35.351Z,101280.56
2022-10-30T00:33:02.022Z,101281.38
2022-10-30T00:35:28.660Z,101281.34
2022-10-30T00:37:55.258Z,101288.09
2022-10-30T00:40:22.389Z,101287.03
2022-10-30T00:42:48.925Z,101282.53
2022-10-30T00:45:17.213Z,101282.91
2022-10-30T00:47:48.728Z,101281.09
2022-10-30T00:53:11.760Z,101286.16
2022-10-30T00:55:43.992Z,101282.28
2022-10-30T00:58:15.283Z,101275.97
2022-10-30T01:00:46.402Z,101277.19
2022-10-30T01:03:13.206Z,101288.19
2022-10-30T01:05:40.544Z,101283.31
2022-10-30T01:08:06.890Z,101280.84
2022-10-30T01:10:33.609Z,101281.44
2022-10-30T01:13:01.430Z,101286.97
2022-10-30T01:15:33.224Z,101288.78
2022-10-30T01:18:37.762Z,101287.75
2022-10-30T01:21:10.394Z,101298.16
2022-10-30T01:23:50.794Z,101284.69
2022-10-30T01:26:31.426Z,101285.91
2022-10-30T01:29:03.293Z,101288.53
2022-10-30T01:31:58.435Z,101290.13
2022-10-30T01:34:45.003Z,101292.19
2022-10-30T01:37:38.096Z,101289.31
2022-10-30T01:40:14.316Z,101294.41
2022-10-30T01:42:48.747Z,101290.72
2022-10-30T01:45:28.508Z,101286.09
2022-10-30T01:48:12.939Z,101286.03
2022-10-30T01:50:56.828Z,101281.72
2022-10-30T01:53:25.863Z,101275.56
2022-10-30T01:56:07.403Z,101276.19
2022-10-30T01:58:58.606Z,101277.34
2022-10-30T02:01:28.064Z,101276.94
2022-10-30T02:03:54.694Z,101277.84
2022-10-30T02:06:21.228Z,101276.22
2022-10-30T02:08:47.841Z,101272.97
2022-10-30T02:11:14.898Z,101279.00
2022-10-30T02:13:41.425Z,101269.19
2022-10-30T02:16:08.507Z,101266.66
2022-10-30T02:18:35.067Z,101260.84
2022-10-30T02:21:01.911Z,101256.38
2022-10-30T02:23:28.459Z,101246.97
2022-10-30T02:25:54.852Z,101254.34
2022-10-30T02:28:21.249Z,101263.94
2022-10-30T02:30:47.615Z,101273.53
2022-10-30T02:33:14.066Z,101268.84
2022-10-30T02:35:40.537Z,101272.38
2022-10-30T02:38:06.947Z,101275.66
2022-10-30T02:40:33.517Z,101268.28
2022-10-30T02:42:59.920Z,101264.19
2022-10-30T02:45:26.843Z,101264.63
2022-10-30T02:47:53.309Z,101263.41
2022-10-30T02:50:19.816Z,101255.63
2022-10-30T02:52:46.296Z,101257.25
2022-10-30T02:55:12.782Z,101248.69
2022-10-30T02:57:39.215Z,101266.84
2022-10-30T03:00:06.339Z,101261.28
2022-10-30T03:02:33.456Z,101268.97
2022-10-30T03:04:59.847Z,101277.75
2022-10-30T03:07:26.309Z,101282.16
2022-10-30T03:09:54.233Z,101279.78
2022-10-30T03:12:21.439Z,101267.06
2022-10-30T03:14:47.821Z,101268.84
2022-10-30T03:17:14.217Z,101277.94
2022-10-30T03:19:43.512Z,101280.97
2022-10-30T03:22:09.930Z,101283.41
2022-10-30T03:24:36.561Z,101289.16
2022-10-30T03:27:02.943Z,101289.06
2022-10-30T03:29:29.846Z,101285.28
2022-10-30T03:31:56.324Z,101293.88
2022-10-30T03:34:22.734Z,101284.00
2022-10-30T03:36:49.186Z,101283.00
2022-10-30T03:39:15.547Z,101279.84
2022-10-30T03:41:43.472Z,101278.19
2022-10-30T03:44:09.879Z,101277.06
2022-10-30T03:46:36.351Z,101284.22
2022-10-30T03:49:02.752Z,101290.56
2022-10-30T03:51:29.152Z,101288.31
2022-10-30T03:53:55.503Z,101286.19
2022-10-30T03:56:21.897Z,101292.66
2022-10-30T03:58:48.289Z,101297.38
2022-10-30T04:01:15.031Z,101297.84
2022-10-30T04:03:41.593Z,101302.31
2022-10-30T04:06:08.092Z,101301.88
2022-10-30T04:08:34.716Z,101297.44
2022-10-30T04:11:01.473Z,101307.53
2022-10-30T04:13:27.945Z,101294.88
2022-10-30T04:15:57.951Z,101307.66
2022-10-30T04:18:25.531Z,101305.78
2022-10-30T04:20:51.939Z,101297.72
2022-10-30T04:23:20.430Z,101313.38
2022-10-30T04:25:46.965Z,101309.84
2022-10-30T04:28:14.340Z,101305.28
2022-10-30T04:30:40.897Z,101308.56
2022-10-30T04:33:11.727Z,101310.75
2022-10-30T04:35:38.843Z,101316.72
2022-10-30T04:38:07.793Z,101313.50
2022-10-30T04:40:36.928Z,101319.59
2022-10-30T04:43:03.917Z,101310.13
2022-10-30T04:45:30.303Z,101307.66
2022-10-30T04:48:04.313Z,101303.31
2022-10-30T04:50:31.633Z,101302.34
2022-10-30T04:53:02.970Z,101292.88
2022-10-30T04:55:30.062Z,101291.97
2022-10-30T04:57:58.580Z,101288.25
2022-10-30T05:00:26.844Z,101279.81
2022-10-30T05:02:53.396Z,101285.50
2022-10-30T05:05:20.473Z,101290.19
2022-10-30T05:07:46.837Z,101285.63
2022-10-30T05:10:14.730Z,101294.09
2022-10-30T05:12:45.403Z,101290.44
2022-10-30T05:15:13.753Z,101290.47
2022-10-30T05:17:41.271Z,101273.06
2022-10-30T05:20:08.692Z,101262.78
2022-10-30T05:22:35.089Z,101266.19
2022-10-30T05:25:01.482Z,101275.06
2022-10-30T05:27:27.881Z,101268.41
2022-10-30T05:29:54.277Z,101270.94
2022-10-30T05:32:20.702Z,101268.69
2022-10-30T05:34:47.070Z,101268.31
2022-10-30T05:37:13.609Z,101263.69
2022-10-30T05:39:40.005Z,101257.16
2022-10-30T05:42:09.793Z,101252.19
2022-10-30T05:44:59.259Z,101254.44
2022-10-30T05:47:25.737Z,101244.63
2022-10-30T05:49:52.159Z,101242.81
2022-10-30T05:52:18.534Z,101249.72
2022-10-30T05:54:44.995Z,101256.09
2022-10-30T05:57:11.394Z,101259.09
2022-10-30T05:59:37.836Z,101267.78
2022-10-30T06:02:04.383Z,101273.72
2022-10-30T06:04:30.838Z,101266.25
2022-10-30T06:06:57.227Z,101270.81
2022-10-30T06:09:23.703Z,101269.91
2022-10-30T06:11:50.312Z,101271.91
2022-10-30T06:14:16.700Z,101274.00
2022-10-30T06:16:43.203Z,101268.38
2022-10-30T06:19:13.978Z,101274.19
2022-10-30T06:21:44.025Z,101272.91
2022-10-30T06:24:10.493Z,101273.84
2022-10-30T06:26:36.933Z,101276.13
2022-10-30T06:29:03.406Z,101278.94
2022-10-30T06:31:29.804Z,101274.47
2022-10-30T06:33:56.199Z,101279.91
2022-10-30T06:36:22.781Z,101278.31
2022-10-30T06:38:49.317Z,101285.03
2022-10-30T06:41:15.681Z,101283.66
2022-10-30T06:43:42.064Z,101285.41
2022-10-30T06:46:08.475Z,101280.84
2022-10-30T06:48:34.983Z,101285.75
2022-10-30T06:51:02.943Z,101289.50
2022-10-30T06:53:29.661Z,101293.63
2022-10-30T06:56:00.942Z,101288.97
2022-10-30T06:58:28.558Z,101288.69
2022-10-30T07:00:55.700Z,101295.69
2022-10-30T07:03:22.325Z,101298.22
2022-10-30T07:05:48.728Z,101291.06
2022-10-30T07:08:15.109Z,101291.22
2022-10-30T07:10:41.551Z,101293.75
2022-10-30T07:13:08.744Z,101291.69
2022-10-30T07:15:35.282Z,101295.22
2022-10-30T07:18:03.613Z,101288.56
2022-10-30T07:20:32.967Z,101288.22
2022-10-30T07:22:59.864Z,101291.13
2022-10-30T07:25:26.734Z,101288.31
2022-10-30T07:27:54.647Z,101291.94
2022-10-30T07:30:23.765Z,101292.34
2022-10-30T07:33:02.336Z,101292.59
2022-10-30T07:35:29.436Z,101280.31
2022-10-30T07:37:56.314Z,101285.75
2022-10-30T07:40:22.793Z,101291.09
2022-10-30T07:42:49.226Z,101286.44
2022-10-30T07:45:15.671Z,101287.75
2022-10-30T07:47:43.493Z,101284.03
2022-10-30T07:50:11.057Z,101293.97
2022-10-30T07:52:37.516Z,101285.94
2022-10-30T07:55:05.034Z,101278.91
2022-10-30T07:57:35.712Z,101288.97
2022-10-30T08:00:06.098Z,101286.66
2022-10-30T08:02:32.897Z,101289.69
2022-10-30T08:04:59.376Z,101284.97
2022-10-30T08:07:38.067Z,101286.28
2022-10-30T08:10:05.229Z,101281.38
2022-10-30T08:12:33.285Z,101284.00
2022-10-30T08:14:59.990Z,101282.47
2022-10-30T08:17:26.381Z,101289.47
2022-10-30T08:19:52.806Z,101286.13
2022-10-30T08:22:19.366Z,101282.81
2022-10-30T08:24:45.785Z,101274.56
2022-10-30T08:27:12.192Z,101270.88
2022-10-30T08:29:38.549Z,101266.41
2022-10-30T08:32:08.736Z,101266.06
2022-10-30T08:34:35.251Z,101263.75
2022-10-30T08:37:01.913Z,101268.22
2022-10-30T08:39:28.513Z,101264.81
2022-10-30T08:41:57.504Z,101269.66
2022-10-30T08:44:23.946Z,101268.00
2022-10-30T08:46:50.314Z,101270.00
2022-10-30T08:49:16.754Z,101272.59
2022-10-30T08:51:44.269Z,101270.00
2022-10-30T08:54:10.811Z,101265.66
2022-10-30T08:56:37.237Z,101266.81
2022-10-30T08:59:03.640Z,101252.66
2022-10-30T09:01:30.091Z,101253.97
2022-10-30T09:03:56.658Z,101250.25
2022-10-30T09:06:23.061Z,101255.59
2022-10-30T09:08:49.474Z,101250.72
2022-10-30T09:11:17.442Z,101265.56
2022-10-30T09:13:43.911Z,101247.63
2022-10-30T09:16:10.347Z,101252.56
2022-10-30T09:18:36.830Z,101248.66
2022-10-30T09:21:05.072Z,101242.34
2022-10-30T09:23:31.986Z,101243.72
2022-10-30T09:25:58.440Z,101237.59
2022-10-30T09:28:24.933Z,101233.22
2022-10-30T09:30:56.215Z,101226.19
2022-10-30T09:33:23.157Z,101218.00
2022-10-30T09:35:50.691Z,101226.63
2022-10-30T09:38:17.175Z,101225.72
2022-10-30T09:40:46.480Z,101233.31
2022-10-30T09:43:35.148Z,101224.81
2022-10-30T09:46:04.515Z,101230.94
2022-10-30T09:48:39.952Z,101224.78
2022-10-30T09:51:24.816Z,101229.03
2022-10-30T09:53:56.968Z,101233.16
2022-10-30T09:56:40.342Z,101232.91
2022-10-30T09:59:15.616Z,101224.41
2022-10-30T10:01:53.128Z,101224.66
2022-10-30T10:04:25.563Z,101226.75
2022-10-30T10:07:00.630Z,101229.81
2022-10-30T10:09:29.986Z,101231.47
2022-10-30T10:12:00.675Z,101230.88
2022-10-30T10:14:34.952Z,101226.59
2022-10-30T10:17:05.300Z,101231.72
2022-10-30T10:19:59.321Z,101224.44
2022-10-30T10:22:49.969Z,101227.72
2022-10-30T10:25:19.553Z,101232.75
2022-10-30T10:28:01.419Z,101229.56
2022-10-30T10:31:00.145Z,101227.94
2022-10-30T10:33:40.578Z,101227.34
2022-10-30T10:36:17.589Z,101228.22
2022-10-30T10:39:14.560Z,101232.00
2022-10-30T10:41:59.619Z,101221.63
2022-10-30T10:44:49.275Z,101221.41
2022-10-30T10:47:23.499Z,101216.03
2022-10-30T10:50:19.017Z,101220.38
2022-10-30T10:53:05.464Z,101220.66
2022-10-30T10:55:38.251Z,101231.75
2022-10-30T10:58:14.065Z,101207.94
2022-10-30T11:00:40.783Z,101221.06
2022-10-30T11:05:56.639Z,101211.69
2022-10-30T11:08:31.937Z,101209.47
2022-10-30T11:11:01.015Z,101207.09
2022-10-30T11:13:34.952Z,101214.28
2022-10-30T11:16:01.317Z,101213.06
2022-10-30T11:18:27.710Z,101209.28
2022-10-30T11:21:00.734Z,101210.44
2022-10-30T11:23:47.087Z,101213.53
2022-10-30T11:26:22.864Z,101209.41
2022-10-30T11:28:59.868Z,101209.31
2022-10-30T11:31:28.298Z,101206.88
2022-10-30T11:33:54.705Z,101195.28
2022-10-30T11:36:25.898Z,101201.03
2022-10-30T11:38:57.166Z,101199.84
2022-10-30T11:41:23.760Z,101197.00
2022-10-30T11:43:50.319Z,101196.03
2022-10-30T11:46:23.280Z,101195.84
2022-10-30T11:48:55.012Z,101201.03
2022-10-30T11:51:52.448Z,101188.06
2022-10-30T11:54:21.610Z,101187.88
2022-10-30T11:56:49.943Z,101190.78
2022-10-30T11:59:21.797Z,101185.69
2022-10-30T12:02:20.339Z,101184.06
2022-10-30T12:04:46.848Z,101188.03
2022-10-30T12:07:34.740Z,101182.47
2022-10-30T12:10:02.314Z,101181.88
2022-10-30T12:12:33.121Z,101182.72
2022-10-30T12:15:15.105Z,101181.34
2022-10-30T12:17:54.031Z,101180.31
2022-10-30T12:20:21.029Z,101179.00
2022-10-30T12:22:47.655Z,101181.63
2022-10-30T12:25:30.326Z,101182.31
2022-10-30T12:28:04.580Z,101184.91
2022-10-30T12:30:37.561Z,101185.66
2022-10-30T12:33:20.790Z,101175.00
2022-10-30T12:35:55.779Z,101176.78
2022-10-30T12:38:26.623Z,101173.88
2022-10-30T12:41:03.999Z,101176.78
2022-10-30T12:43:34.808Z,101178.56
2022-10-30T12:46:22.781Z,101173.16
2022-10-30T12:49:09.452Z,101169.22
2022-10-30T12:51:42.284Z,101169.00
2022-10-30T12:54:22.833Z,101174.78
2022-10-30T12:56:57.095Z,101172.09
2022-10-30T13:00:14.682Z,101161.44
2022-10-30T13:02:48.191Z,101169.63
2022-10-30T13:05:30.194Z,101157.03
2022-10-30T13:08:29.729Z,101149.63
2022-10-30T13:11:37.446Z,101150.00
2022-10-30T13:14:10.266Z,101145.16
2022-10-30T13:16:36.808Z,101154.59
2022-10-30T13:19:03.664Z,101154.28
2022-10-30T13:21:55.635Z,101156.81
2022-10-30T13:24:27.452Z,101147.41
2022-10-30T13:27:36.536Z,101145.72
2022-10-30T13:30:12.774Z,101136.47
2022-10-30T13:32:51.127Z,101145.63
2022-10-30T13:35:25.325Z,101142.69
2022-10-30T13:38:13.365Z,101145.69
2022-10-30T13:41:08.951Z,101147.06
2022-10-30T13:43:52.234Z,101144.88
2022-10-30T13:46:47.858Z,101136.41
2022-10-30T13:49:35.529Z,101139.56
2022-10-30T13:52:12.184Z,101144.47
2022-10-30T13:55:01.086Z,101146.09
2022-10-30T13:57:45.825Z,101155.19
2022-10-30T14:00:12.673Z,101149.44
2022-10-30T14:02:45.380Z,101152.28
2022-10-30T14:05:39.477Z,101148.63
2022-10-30T14:08:08.956Z,101140.91
2022-10-30T14:10:54.571Z,101147.38
2022-10-30T14:13:26.962Z,101148.22
2022-10-30T14:15:56.350Z,101147.72
2022-10-30T14:18:25.756Z,101145.81
2022-10-30T14:20:54.381Z,101143.41
2022-10-30T14:23:35.972Z,101136.63
2022-10-30T14:26:02.374Z,101142.78
2022-10-30T14:28:30.489Z,101140.34
2022-10-30T14:31:05.141Z,101140.84
2022-10-30T14:33:40.772Z,101135.59
2022-10-30T14:36:25.379Z,101128.09
2022-10-30T14:38:53.907Z,101125.94
2022-10-30T14:41:35.436Z,101131.00
2022-10-30T14:44:23.386Z,101131.06
2022-10-30T14:47:02.128Z,101131.19
2022-10-30T14:49:36.811Z,101143.00
2022-10-30T14:52:28.666Z,101146.88
2022-10-30T14:55:26.080Z,101141.63
2022-10-30T14:57:53.688Z,101137.56
2022-10-30T15:00:38.012Z,101133.34
2022-10-30T15:03:15.463Z,101132.28
2022-10-30T15:05:58.654Z,101136.19
2022-10-30T15:08:37.314Z,101141.84
2022-10-30T15:11:30.661Z,101144.88
2022-10-30T15:14:01.058Z,101138.53
2022-10-30T15:16:29.460Z,101135.88
2022-10-30T15:19:06.232Z,101144.06
2022-10-30T15:21:45.748Z,101144.72
2022-10-30T15:24:16.810Z,101146.25
2022-10-30T15:26:49.046Z,101154.53
2022-10-30T15:29:21.061Z,101147.44
2022-10-30T15:32:04.439Z,101149.19
2022-10-30T15:34:33.389Z,101153.28
2022-10-30T15:36:59.806Z,101166.31
2022-10-30T15:39:26.210Z,101165.41
2022-10-30T15:41:58.273Z,101167.38
2022-10-30T15:44:27.745Z,101172.28
2022-10-30T15:46:56.880Z,101170.75
2022-10-30T15:49:41.266Z,101181.63
2022-10-30T15:52:30.845Z,101181.38
2022-10-30T15:55:01.239Z,101192.81
2022-10-30T16:00:31.515Z,101204.69
2022-10-30T16:03:16.455Z,101205.09
2022-10-30T16:05:43.028Z,101203.97
2022-10-30T16:08:20.916Z,101208.19
2022-10-30T16:10:48.468Z,101217.81
2022-10-30T16:13:18.906Z,101218.84
2022-10-30T16:15:50.161Z,101214.19
2022-10-30T16:18:25.485Z,101216.03
2022-10-30T16:20:54.814Z,101218.44
2022-10-30T16:23:22.165Z,101220.28
2022-10-30T16:25:54.923Z,101232.47
2022-10-30T16:28:46.810Z,101225.59
2022-10-30T16:31:15.958Z,101227.94
2022-10-30T16:33:44.545Z,101232.72
2022-10-30T16:36:16.906Z,101237.47
2022-10-30T16:38:46.169Z,101244.06
2022-10-30T16:41:13.718Z,101247.97
2022-10-30T16:43:41.969Z,101254.78
2022-10-30T16:46:14.243Z,101257.28
2022-10-30T16:48:48.429Z,101264.88
2022-10-30T16:51:17.496Z,101267.53
2022-10-30T16:53:48.866Z,101260.78
2022-10-30T16:56:25.090Z,101275.75
2022-10-30T16:58:58.979Z,101273.91
2022-10-30T17:01:28.643Z,101276.78
2022-10-30T17:03:56.273Z,101284.81
2022-10-30T17:06:39.702Z,101283.38
2022-10-30T17:09:21.356Z,101287.91
2022-10-30T17:12:03.936Z,101284.22
2022-10-30T17:14:51.127Z,101294.84
2022-10-30T17:17:33.084Z,101297.72
2022-10-30T17:20:01.959Z,101309.56
2022-10-30T17:22:29.366Z,101319.59
2022-10-30T17:24:56.184Z,101316.31
2022-10-30T17:27:48.043Z,101323.91
2022-10-30T17:30:34.718Z,101336.34
2022-10-30T17:33:24.763Z,101336.31
2022-10-30T17:35:51.608Z,101338.91
2022-10-30T17:38:18.669Z,101342.59
2022-10-30T17:40:45.343Z,101345.72
2022-10-30T17:43:15.268Z,101350.53
2022-10-30T17:45:42.829Z,101353.19
2022-10-30T17:48:17.972Z,101354.81
2022-10-30T17:50:44.931Z,101355.78
2022-10-30T17:53:21.684Z,101361.34
2022-10-30T17:55:56.794Z,101358.88
2022-10-30T17:58:23.324Z,101369.84
2022-10-30T18:00:49.903Z,101365.78
2022-10-30T18:03:16.383Z,101364.53
2022-10-30T18:05:43.698Z,101362.47
2022-10-30T18:08:10.178Z,101368.81
2022-10-30T18:10:36.592Z,101367.81
2022-10-30T18:13:03.359Z,101371.59
2022-10-30T18:15:42.076Z,101374.94
2022-10-30T18:18:08.504Z,101380.00
2022-10-30T18:20:34.879Z,101375.13
2022-10-30T18:23:03.119Z,101365.91
2022-10-30T18:25:35.699Z,101371.84
2022-10-30T18:28:02.669Z,101367.28
2022-10-30T18:30:29.392Z,101378.88
2022-10-30T18:32:56.830Z,101382.78
2022-10-30T18:35:33.607Z,101399.84
2022-10-30T18:38:00.033Z,101395.75
2022-10-30T18:40:26.404Z,101398.78
2022-10-30T18:42:52.902Z,101408.97
2022-10-30T18:45:27.775Z,101410.31
2022-10-30T18:47:54.925Z,101398.94
2022-10-30T18:50:22.881Z,101401.78
2022-10-30T18:52:49.798Z,101401.34
2022-10-30T18:55:25.696Z,101411.19
2022-10-30T18:57:53.186Z,101411.28
2022-10-30T19:00:25.895Z,101411.56
2022-10-30T19:02:53.027Z,101421.69
2022-10-30T19:05:38.954Z,101415.00
2022-10-30T19:08:06.670Z,101422.53
2022-10-30T19:10:36.501Z,101425.84
2022-10-30T19:13:12.660Z,101426.84
2022-10-30T19:15:42.296Z,101419.28
2022-10-30T19:18:08.871Z,101424.78
2022-10-30T19:20:58.558Z,101420.66
2022-10-30T19:23:25.163Z,101432.31
2022-10-30T19:25:52.573Z,101427.63
2022-10-30T19:28:20.858Z,101438.84
2022-10-30T19:30:53.003Z,101437.19
2022-10-30T19:33:21.569Z,101442.56
2022-10-30T19:35:56.391Z,101439.69
2022-10-30T19:38:23.538Z,101442.72
2022-10-30T19:40:50.165Z,101444.53
2022-10-30T19:43:16.588Z,101451.81
2022-10-30T19:45:43.204Z,101442.22
2022-10-30T19:51:13.992Z,101454.19
2022-10-30T19:53:40.981Z,101451.34
2022-10-30T19:56:10.908Z,101449.25
2022-10-30T19:58:37.448Z,101459.03
2022-10-30T20:01:03.866Z,101459.28
2022-10-30T20:03:30.313Z,101452.13
2022-10-30T20:05:56.758Z,101454.50
2022-10-30T20:08:25.112Z,101460.31
2022-10-30T20:10:53.844Z,101453.63
2022-10-30T20:13:21.516Z,101463.59
2022-10-30T20:15:47.951Z,101467.38
2022-10-30T20:18:17.325Z,101465.13
2022-10-30T20:20:52.418Z,101461.28
2022-10-30T20:23:20.311Z,101465.81
2022-10-30T20:25:48.796Z,101469.25
2022-10-30T20:28:18.206Z,101468.81
2022-10-30T20:30:44.641Z,101467.41
2022-10-30T20:33:13.178Z,101478.00
2022-10-30T20:35:39.764Z,101478.91
2022-10-30T20:38:06.380Z,101478.81
2022-10-30T20:40:32.835Z,101470.88
2022-10-30T20:43:02.879Z,101478.56
2022-10-30T20:45:29.874Z,101480.38
2022-10-30T20:47:56.458Z,101486.69
2022-10-30T20:50:23.340Z,101490.44
2022-10-30T20:52:49.845Z,101492.25
2022-10-30T20:55:16.494Z,101497.34
2022-10-30T20:57:43.170Z,101494.91
2022-10-30T21:00:12.172Z,101492.44
2022-10-30T21:02:39.224Z,101502.56
2022-10-30T21:05:17.296Z,101499.19
2022-10-30T21:07:50.033Z,101503.22
2022-10-30T21:10:16.403Z,101507.69
2022-10-30T21:12:42.810Z,101509.25
2022-10-30T21:15:09.548Z,101509.44
2022-10-30T21:17:35.907Z,101499.22
2022-10-30T21:20:02.468Z,101503.88
2022-10-30T21:22:28.852Z,101504.84
2022-10-30T21:24:55.244Z,101508.72
2022-10-30T21:27:21.616Z,101516.66
2022-10-30T21:29:48.170Z,101519.06
2022-10-30T21:32:14.604Z,101525.91
2022-10-30T21:34:41.004Z,101530.00
2022-10-30T21:37:07.376Z,101530.84
2022-10-30T21:39:34.025Z,101534.22
2022-10-30T21:42:00.380Z,101530.25
2022-10-30T21:44:26.812Z,101531.91
2022-10-30T21:46:53.270Z,101536.22
2022-10-30T21:49:19.701Z,101543.66
2022-10-30T21:51:49.526Z,101543.84
2022-10-30T21:54:19.455Z,101546.84
2022-10-30T21:56:46.077Z,101551.78
2022-10-30T21:59:13.456Z,101549.69
2022-10-30T22:01:41.028Z,101552.88
2022-10-30T22:04:10.331Z,101545.84
2022-10-30T22:06:44.256Z,101556.44
2022-10-30T22:09:15.175Z,101552.78
2022-10-30T22:11:42.020Z,101554.97
2022-10-30T22:14:08.575Z,101560.06
2022-10-30T22:16:37.067Z,101560.44
2022-10-30T22:19:05.488Z,101565.53
2022-10-30T22:21:32.013Z,101569.81
2022-10-30T22:24:02.342Z,101568.38
2022-10-30T22:26:29.468Z,101569.69
2022-10-30T22:29:00.390Z,101572.84
2022-10-30T22:31:28.929Z,101567.06
2022-10-30T22:33:55.895Z,101581.28
2022-10-30T22:36:24.995Z,101587.53
2022-10-30T22:38:57.497Z,101594.63
2022-10-30T22:41:24.564Z,101581.50
2022-10-30T22:43:54.717Z,101581.91
2022-10-30T22:46:23.307Z,101594.22
2022-10-30T22:48:49.807Z,101595.03
2022-10-30T22:51:17.808Z,101594.16
2022-10-30T22:53:46.325Z,101594.50
2022-10-30T22:56:20.855Z,101593.94
2022-10-30T22:58:48.947Z,101592.59
2022-10-30T23:01:24.157Z,101593.22
2022-10-30T23:03:52.048Z,101592.84
2022-10-30T23:06:19.781Z,101594.31
2022-10-30T23:08:46.203Z,101588.22
2022-10-30T23:11:13.133Z,101592.22
2022-10-30T23:13:40.496Z,101594.31
2022-10-30T23:16:10.717Z,101597.63
2022-10-30T23:18:37.285Z,101597.28
2022-10-30T23:21:07.123Z,101597.47
2022-10-30T23:23:36.297Z,101599.38
2022-10-30T23:26:08.858Z,101597.72
2022-10-30T23:28:35.707Z,101595.38
2022-10-30T23:31:19.601Z,101597.19
2022-10-30T23:33:50.765Z,101599.38
2022-10-30T23:36:18.222Z,101595.91
2022-10-30T23:38:44.968Z,101613.06
2022-10-30T23:41:11.336Z,101601.00
2022-10-30T23:43:37.754Z,101599.84
2022-10-30T23:46:04.221Z,101595.84
2022-10-30T23:48:30.607Z,101603.06
2022-10-30T23:50:57.065Z,101600.75
2022-10-30T23:53:23.559Z,101602.31
2022-10-30T23:55:54.285Z,101604.78
2022-10-30T23:58:21.165Z,101605.97
